createdAt,value
2023-04-27T00:01:13.493Z,4.35
2023-04-27T00:03:41.394Z,4.47
2023-04-27T00:06:09.569Z,4.43
2023-04-27T00:08:36.721Z,4.93
2023-04-27T00:11:03.635Z,4.75
2023-04-27T00:13:30.459Z,4.03
2023-04-27T00:15:57.108Z,4.20
2023-04-27T00:18:23.949Z,4.72
2023-04-27T00:20:50.615Z,4.43
2023-04-27T00:23:17.392Z,4.55
2023-04-27T00:25:44.077Z,4.70
2023-04-27T00:28:10.950Z,4.15
2023-04-27T00:30:37.736Z,4.32
2023-04-27T00:33:04.528Z,4.72
2023-04-27T00:35:33.302Z,3.88
2023-04-27T00:38:00.074Z,4.03
2023-04-27T00:40:26.654Z,4.35
2023-04-27T00:42:53.332Z,5.10
2023-04-27T00:45:20.206Z,5.00
2023-04-27T00:47:47.003Z,4.63
2023-04-27T00:50:14.916Z,5.70
2023-04-27T00:52:42.148Z,4.45
2023-04-27T00:55:09.556Z,5.15
2023-04-27T00:57:36.330Z,5.28
2023-04-27T01:00:06.654Z,5.25
2023-04-27T01:02:33.655Z,4.93
2023-04-27T01:05:01.959Z,4.38
2023-04-27T01:07:29.298Z,4.60
2023-04-27T01:09:56.421Z,4.72
2023-04-27T01:12:23.056Z,4.60
2023-04-27T01:14:49.750Z,4.95
2023-04-27T01:17:18.226Z,5.05
2023-04-27T01:19:45.139Z,4.93
2023-04-27T01:22:11.895Z,4.78
2023-04-27T01:24:38.574Z,5.00
2023-04-27T01:27:05.469Z,5.43
2023-04-27T01:29:32.433Z,4.95
2023-04-27T01:31:59.348Z,4.65
2023-04-27T01:34:25.952Z,4.65
2023-04-27T01:36:52.585Z,4.55
2023-04-27T01:39:19.224Z,5.53
2023-04-27T01:41:45.902Z,5.70
2023-04-27T01:44:12.510Z,4.95
2023-04-27T01:46:39.311Z,5.15
2023-04-27T01:49:06.254Z,5.38
2023-04-27T01:51:33.024Z,4.85
2023-04-27T01:53:59.915Z,5.85
2023-04-27T01:56:26.641Z,6.15
2023-04-27T01:58:53.665Z,6.63
2023-04-27T02:01:20.558Z,6.00
2023-04-27T02:03:47.465Z,6.05
2023-04-27T02:06:16.496Z,7.35
2023-04-27T02:08:43.162Z,6.85
2023-04-27T02:11:09.907Z,7.32
2023-04-27T02:13:37.769Z,5.05
2023-04-27T02:16:05.259Z,6.13
2023-04-27T02:18:33.571Z,6.47
2023-04-27T02:21:00.610Z,7.47
2023-04-27T02:23:27.398Z,8.52
2023-04-27T02:25:54.048Z,8.15
2023-04-27T02:28:20.730Z,7.57
2023-04-27T02:30:47.822Z,8.40
2023-04-27T02:33:14.571Z,7.72
2023-04-27T02:35:41.212Z,8.60
2023-04-27T02:38:07.895Z,9.63
2023-04-27T02:40:34.501Z,9.10
2023-04-27T02:43:01.084Z,9.18
2023-04-27T02:45:28.458Z,9.75
2023-04-27T02:47:55.221Z,8.48
2023-04-27T02:50:22.028Z,9.45
2023-04-27T02:52:48.700Z,9.20
2023-04-27T02:55:15.938Z,8.57
2023-04-27T02:57:42.937Z,9.02
2023-04-27T03:00:11.009Z,9.95
2023-04-27T03:02:37.831Z,8.55
2023-04-27T03:05:05.309Z,9.15
2023-04-27T03:07:32.255Z,9.57
2023-04-27T03:09:59.329Z,9.23
2023-04-27T03:12:25.994Z,9.38
2023-04-27T03:14:52.730Z,9.40
2023-04-27T03:17:19.933Z,10.07
2023-04-27T03:19:49.136Z,9.35
2023-04-27T03:22:15.890Z,8.60
2023-04-27T03:24:42.986Z,8.32
2023-04-27T03:27:09.874Z,8.48
2023-04-27T03:29:36.597Z,7.78
2023-04-27T03:32:04.515Z,7.88
2023-04-27T03:34:31.669Z,7.28
2023-04-27T03:36:58.413Z,8.35
2023-04-27T03:39:25.058Z,7.82
2023-04-27T03:41:51.680Z,8.52
2023-04-27T03:44:18.516Z,8.32
2023-04-27T03:46:45.358Z,8.55
2023-04-27T03:49:12.189Z,7.85
2023-04-27T03:51:42.212Z,8.60
2023-04-27T03:54:09.945Z,8.90
2023-04-27T03:56:37.012Z,7.68
2023-04-27T03:59:04.985Z,8.57
2023-04-27T04:01:31.915Z,8.55
2023-04-27T04:03:58.776Z,8.43
2023-04-27T04:06:26.148Z,5.57
2023-04-27T04:08:52.766Z,6.95
2023-04-27T04:11:19.392Z,6.65
2023-04-27T04:13:46.166Z,7.40
2023-04-27T04:16:13.843Z,6.53
2023-04-27T04:18:40.888Z,6.68
2023-04-27T04:21:11.090Z,5.63
2023-04-27T04:23:38.390Z,7.25
2023-04-27T04:26:05.712Z,6.63
2023-04-27T04:28:32.462Z,7.65
2023-04-27T04:31:01.282Z,7.05
2023-04-27T04:33:28.049Z,7.78
2023-04-27T04:35:54.675Z,6.72
2023-04-27T04:38:21.323Z,7.47
2023-04-27T04:40:47.991Z,6.35
2023-04-27T04:43:14.670Z,5.55
2023-04-27T04:45:42.585Z,7.07
2023-04-27T04:48:10.254Z,6.85
2023-04-27T04:50:37.080Z,6.75
2023-04-27T04:53:03.807Z,7.25
2023-04-27T04:55:30.604Z,7.97
2023-04-27T04:57:57.199Z,7.22
2023-04-27T05:00:23.929Z,6.25
2023-04-27T05:02:50.709Z,6.20
2023-04-27T05:05:17.545Z,6.20
2023-04-27T05:07:44.149Z,5.25
2023-04-27T05:10:10.910Z,6.47
2023-04-27T05:12:37.700Z,6.40
2023-04-27T05:15:05.143Z,5.85
2023-04-27T05:17:32.031Z,7.10
2023-04-27T05:19:58.705Z,6.55
2023-04-27T05:22:25.390Z,6.75
2023-04-27T05:24:52.126Z,7.40
2023-04-27T05:27:18.828Z,7.20
2023-04-27T05:29:45.499Z,7.05
2023-04-27T05:32:12.483Z,5.70
2023-04-27T05:34:39.159Z,6.90
2023-04-27T05:37:05.828Z,7.35
2023-04-27T05:39:32.847Z,6.30
2023-04-27T05:41:59.573Z,7.10
2023-04-27T05:44:28.535Z,6.95
2023-04-27T05:46:56.121Z,7.63
2023-04-27T05:49:23.258Z,7.10
2023-04-27T05:51:50.215Z,7.07
2023-04-27T05:54:16.845Z,8.50
2023-04-27T05:56:43.603Z,10.13
2023-04-27T05:59:10.306Z,8.02
2023-04-27T06:01:37.117Z,7.55
2023-04-27T06:04:04.727Z,8.50
2023-04-27T06:06:32.943Z,7.70
2023-04-27T06:08:59.803Z,7.07
2023-04-27T06:11:26.749Z,6.20
2023-04-27T06:13:53.390Z,5.65
2023-04-27T06:16:21.277Z,6.82
2023-04-27T06:18:50.214Z,6.95
2023-04-27T06:21:17.967Z,6.32
2023-04-27T06:23:44.708Z,5.95
2023-04-27T06:26:11.638Z,6.20
2023-04-27T06:28:38.643Z,6.40
2023-04-27T06:31:06.299Z,5.35
2023-04-27T06:33:33.353Z,6.50
2023-04-27T06:36:01.289Z,3.95
2023-04-27T06:38:28.068Z,5.13
2023-04-27T06:40:54.991Z,5.22
2023-04-27T06:43:22.189Z,5.45
2023-04-27T06:45:48.905Z,6.68
2023-04-27T06:48:15.883Z,4.85
2023-04-27T06:50:43.378Z,5.53
2023-04-27T06:53:10.319Z,5.18
2023-04-27T06:55:37.038Z,4.72
2023-04-27T06:58:03.733Z,5.30
2023-04-27T07:00:30.855Z,3.78
2023-04-27T07:02:57.676Z,3.05
2023-04-27T07:05:24.351Z,5.13
2023-04-27T07:07:51.077Z,5.10
2023-04-27T07:10:17.850Z,6.18
2023-04-27T07:12:44.874Z,5.93
2023-04-27T07:15:11.551Z,3.53
2023-04-27T07:17:38.385Z,5.85
2023-04-27T07:20:06.357Z,3.55
2023-04-27T07:22:33.631Z,5.18
2023-04-27T07:25:00.408Z,5.97
2023-04-27T07:27:27.359Z,5.55
2023-04-27T07:29:54.633Z,4.60
2023-04-27T07:32:22.500Z,6.55
2023-04-27T07:34:53.954Z,5.57
2023-04-27T07:37:21.824Z,5.57
2023-04-27T07:39:54.416Z,5.88
2023-04-27T07:42:25.074Z,6.00
2023-04-27T07:44:52.605Z,5.72
2023-04-27T07:47:19.463Z,2.90
2023-04-27T07:49:47.089Z,4.32
2023-04-27T07:52:14.185Z,4.22
2023-04-27T07:54:41.074Z,4.93
2023-04-27T07:57:10.084Z,3.65
2023-04-27T07:59:36.961Z,5.10
2023-04-27T08:02:18.573Z,4.45
2023-04-27T08:04:47.274Z,3.08
2023-04-27T08:07:16.027Z,6.00
2023-04-27T08:09:43.168Z,4.30
2023-04-27T08:12:09.859Z,4.40
2023-04-27T08:14:36.764Z,5.80
2023-04-27T08:17:03.686Z,4.40
2023-04-27T08:19:30.533Z,3.78
2023-04-27T08:21:57.158Z,5.05
2023-04-27T08:24:23.808Z,3.45
2023-04-27T08:26:50.626Z,5.18
2023-04-27T08:29:27.016Z,4.70
2023-04-27T08:31:59.382Z,5.10
2023-04-27T08:34:26.781Z,4.07
2023-04-27T08:36:54.180Z,5.13
2023-04-27T08:39:21.438Z,4.88
2023-04-27T08:41:48.108Z,4.80
2023-04-27T08:44:14.832Z,4.22
2023-04-27T08:46:41.677Z,4.43
2023-04-27T08:49:09.780Z,4.65
2023-04-27T08:51:36.699Z,5.32
2023-04-27T08:54:03.397Z,2.83
2023-04-27T08:56:30.620Z,5.60
2023-04-27T08:58:58.266Z,3.90
2023-04-27T09:01:26.224Z,4.78
2023-04-27T09:03:58.348Z,4.68
2023-04-27T09:06:35.443Z,3.92
2023-04-27T09:09:03.327Z,5.57
2023-04-27T09:11:34.709Z,4.50
2023-04-27T09:14:03.380Z,4.85
2023-04-27T09:16:31.367Z,4.20
2023-04-27T09:18:58.942Z,4.55
2023-04-27T09:21:27.992Z,4.15
2023-04-27T09:23:55.945Z,4.18
2023-04-27T09:26:25.050Z,3.97
2023-04-27T09:28:54.616Z,4.10
2023-04-27T09:31:21.661Z,3.53
2023-04-27T09:33:55.052Z,3.60
2023-04-27T09:36:22.628Z,4.35
2023-04-27T09:38:51.692Z,2.92
2023-04-27T09:41:18.851Z,4.45
2023-04-27T09:43:46.138Z,4.40
2023-04-27T09:46:13.816Z,4.60
2023-04-27T09:48:41.577Z,4.70
2023-04-27T09:51:08.575Z,4.85
2023-04-27T09:53:48.493Z,3.40
2023-04-27T09:56:44.887Z,4.32
2023-04-27T09:59:46.708Z,3.10
2023-04-27T10:02:24.758Z,3.85
2023-04-27T10:05:10.779Z,3.90
2023-04-27T10:07:39.273Z,3.80
2023-04-27T10:10:07.287Z,3.03
2023-04-27T10:12:36.512Z,4.40
2023-04-27T10:15:17.484Z,3.92
2023-04-27T10:17:53.372Z,3.80
2023-04-27T10:20:30.554Z,4.70
2023-04-27T10:22:58.790Z,4.43
2023-04-27T10:25:40.369Z,4.32
2023-04-27T10:28:10.044Z,3.90
2023-04-27T10:30:43.753Z,4.70
2023-04-27T10:33:11.851Z,4.27
2023-04-27T10:35:44.229Z,4.45
2023-04-27T10:38:18.529Z,3.63
2023-04-27T10:40:55.274Z,2.97
2023-04-27T10:43:26.496Z,3.67
2023-04-27T10:45:53.726Z,4.63
2023-04-27T10:48:20.729Z,4.40
2023-04-27T10:50:47.651Z,3.70
2023-04-27T10:53:15.565Z,5.20
2023-04-27T10:55:42.343Z,3.60
2023-04-27T10:58:09.050Z,4.60
2023-04-27T11:00:38.577Z,4.32
2023-04-27T11:03:18.097Z,2.75
2023-04-27T11:05:46.730Z,6.55
2023-04-27T11:08:18.292Z,4.70
2023-04-27T11:10:49.772Z,3.20
2023-04-27T11:13:22.175Z,5.43
2023-04-27T11:15:57.762Z,4.38
2023-04-27T11:18:31.554Z,4.63
2023-04-27T11:21:15.616Z,4.90
2023-04-27T11:23:42.685Z,5.27
2023-04-27T11:26:30.858Z,4.10
2023-04-27T11:28:59.065Z,4.50
2023-04-27T11:31:26.848Z,5.20
2023-04-27T11:33:56.087Z,3.45
2023-04-27T11:36:24.352Z,5.72
2023-04-27T11:38:51.081Z,4.50
2023-04-27T11:41:17.864Z,4.35
2023-04-27T11:43:49.483Z,4.82
2023-04-27T11:46:21.343Z,4.82
2023-04-27T11:48:48.817Z,4.43
2023-04-27T11:51:15.566Z,4.30
2023-04-27T11:53:42.804Z,3.65
2023-04-27T11:56:11.079Z,4.82
2023-04-27T11:58:39.359Z,4.47
2023-04-27T12:01:07.280Z,4.07
2023-04-27T12:03:35.036Z,4.90
2023-04-27T12:08:31.771Z,3.78
2023-04-27T12:10:58.441Z,5.07
2023-04-27T12:13:25.234Z,5.63
2023-04-27T12:15:52.289Z,5.72
2023-04-27T12:18:18.989Z,5.18
2023-04-27T12:20:46.399Z,3.85
2023-04-27T12:23:13.180Z,4.03
2023-04-27T12:25:41.113Z,6.05
2023-04-27T12:28:07.991Z,2.78
2023-04-27T12:30:35.132Z,6.22
2023-04-27T12:33:06.766Z,4.78
2023-04-27T12:35:33.404Z,5.45
2023-04-27T12:38:00.082Z,5.30
2023-04-27T12:40:26.845Z,5.65
2023-04-27T12:42:53.530Z,2.97
2023-04-27T12:45:20.570Z,4.65
2023-04-27T12:48:01.678Z,5.32
2023-04-27T12:50:32.393Z,6.35
2023-04-27T12:52:59.698Z,6.32
2023-04-27T12:55:33.546Z,5.65
2023-04-27T12:58:01.902Z,4.80
2023-04-27T13:00:29.736Z,5.25
2023-04-27T13:02:57.419Z,3.83
2023-04-27T13:05:24.419Z,5.30
2023-04-27T13:07:51.082Z,6.03
2023-04-27T13:10:17.757Z,6.05
2023-04-27T13:12:45.626Z,6.05
2023-04-27T13:15:12.431Z,5.85
2023-04-27T13:17:40.603Z,5.45
2023-04-27T13:20:09.751Z,4.45
2023-04-27T13:22:36.452Z,5.93
2023-04-27T13:25:03.407Z,6.47
2023-04-27T13:27:30.129Z,6.13
2023-04-27T13:29:56.757Z,6.80
2023-04-27T13:32:23.415Z,4.68
2023-04-27T13:34:50.083Z,5.68
2023-04-27T13:37:18.575Z,4.43
2023-04-27T13:39:45.700Z,5.47
2023-04-27T13:42:12.637Z,6.53
2023-04-27T13:44:39.410Z,4.50
2023-04-27T13:47:06.766Z,4.10
2023-04-27T13:49:33.731Z,6.00
2023-04-27T13:52:00.780Z,4.93
2023-04-27T13:54:27.696Z,5.70
2023-04-27T13:56:54.434Z,5.78
2023-04-27T13:59:21.730Z,5.20
2023-04-27T14:01:48.552Z,4.72
2023-04-27T14:04:15.373Z,5.43
2023-04-27T14:06:42.130Z,4.28
2023-04-27T14:09:09.337Z,4.78
2023-04-27T14:11:45.025Z,5.40
2023-04-27T14:14:19.353Z,5.28
2023-04-27T14:16:46.302Z,5.32
2023-04-27T14:19:16.048Z,5.80
2023-04-27T14:21:42.897Z,4.72
2023-04-27T14:24:09.532Z,6.22
2023-04-27T14:26:36.174Z,5.25
2023-04-27T14:29:02.825Z,4.78
2023-04-27T14:31:29.686Z,5.45
2023-04-27T14:33:59.421Z,5.13
2023-04-27T14:36:27.256Z,5.07
2023-04-27T14:38:53.881Z,6.13
2023-04-27T14:41:20.917Z,4.00
2023-04-27T14:43:48.769Z,6.72
2023-04-27T14:46:20.824Z,5.60
2023-04-27T14:48:48.867Z,6.40
2023-04-27T14:51:16.302Z,5.40
2023-04-27T14:53:43.893Z,4.80
2023-04-27T14:56:11.099Z,3.88
2023-04-27T14:58:37.760Z,5.78
2023-04-27T15:01:04.481Z,4.97
2023-04-27T15:03:32.647Z,7.22
2023-04-27T15:06:00.463Z,8.30
2023-04-27T15:08:27.319Z,5.47
2023-04-27T15:10:57.650Z,6.38
2023-04-27T15:13:24.841Z,5.13
2023-04-27T15:15:59.150Z,5.45
2023-04-27T15:18:25.907Z,6.43
2023-04-27T15:20:54.092Z,4.35
2023-04-27T15:23:21.363Z,4.50
2023-04-27T15:25:48.835Z,6.60
2023-04-27T15:28:16.684Z,4.82
2023-04-27T15:30:44.247Z,5.78
2023-04-27T15:33:12.232Z,5.75
2023-04-27T15:35:40.299Z,6.30
2023-04-27T15:38:09.558Z,5.10
2023-04-27T15:40:36.361Z,3.95
2023-04-27T15:43:03.182Z,6.00
2023-04-27T15:45:29.941Z,4.63
2023-04-27T15:47:57.131Z,5.93
2023-04-27T15:50:24.281Z,5.47
2023-04-27T15:52:52.058Z,6.68
2023-04-27T15:55:19.053Z,5.47
2023-04-27T15:57:45.756Z,6.25
2023-04-27T16:00:13.239Z,4.90
2023-04-27T16:02:40.607Z,6.15
2023-04-27T16:05:08.523Z,6.35
2023-04-27T16:07:36.361Z,5.43
2023-04-27T16:10:03.957Z,5.68
2023-04-27T16:12:30.984Z,4.80
2023-04-27T16:14:58.066Z,5.50
2023-04-27T16:17:26.720Z,5.05
2023-04-27T16:19:53.676Z,4.68
2023-04-27T16:22:21.157Z,4.32
2023-04-27T16:24:48.080Z,5.20
2023-04-27T16:27:14.729Z,5.80
2023-04-27T16:29:41.354Z,5.70
2023-04-27T16:32:08.247Z,6.80
2023-04-27T16:34:35.909Z,5.28
2023-04-27T16:37:02.699Z,5.60
2023-04-27T16:39:29.462Z,5.72
2023-04-27T16:41:56.099Z,4.90
2023-04-27T16:44:23.683Z,5.30
2023-04-27T16:46:53.652Z,5.57
2023-04-27T16:49:20.321Z,6.07
2023-04-27T16:51:47.148Z,4.70
2023-04-27T16:54:16.450Z,6.50
2023-04-27T16:56:43.505Z,5.95
2023-04-27T16:59:12.731Z,4.72
2023-04-27T17:01:39.925Z,4.13
2023-04-27T17:04:06.759Z,5.40
2023-04-27T17:06:34.662Z,5.55
2023-04-27T17:09:01.459Z,5.80
2023-04-27T17:11:28.168Z,5.22
2023-04-27T17:13:54.806Z,5.53
2023-04-27T17:16:21.851Z,5.50
2023-04-27T17:18:48.866Z,4.88
2023-04-27T17:21:16.753Z,6.00
2023-04-27T17:23:46.371Z,5.18
2023-04-27T17:26:15.727Z,5.25
2023-04-27T17:28:42.362Z,4.25
2023-04-27T17:31:09.051Z,5.38
2023-04-27T17:33:36.015Z,5.70
2023-04-27T17:36:02.723Z,4.72
2023-04-27T17:38:29.416Z,4.80
2023-04-27T17:40:56.248Z,5.07
2023-04-27T17:43:23.173Z,4.80
2023-04-27T17:45:49.880Z,5.15
2023-04-27T17:48:16.930Z,5.45
2023-04-27T17:50:43.791Z,5.05
2023-04-27T17:53:10.457Z,4.90
2023-04-27T17:55:37.099Z,5.10
2023-04-27T17:58:04.139Z,4.55
2023-04-27T18:00:31.013Z,5.15
2023-04-27T18:02:57.963Z,5.80
2023-04-27T18:05:24.799Z,4.90
2023-04-27T18:07:51.797Z,5.55
2023-04-27T18:10:18.486Z,5.13
2023-04-27T18:12:45.254Z,4.78
2023-04-27T18:15:11.995Z,5.10
2023-04-27T18:17:38.855Z,5.47
2023-04-27T18:20:09.477Z,5.88
2023-04-27T18:22:38.473Z,5.35
2023-04-27T18:25:05.646Z,3.47
2023-04-27T18:27:32.900Z,4.90
2023-04-27T18:29:59.702Z,5.07
2023-04-27T18:32:26.437Z,5.22
2023-04-27T18:34:53.902Z,5.53
2023-04-27T18:37:20.600Z,3.90
2023-04-27T18:39:47.287Z,5.38
2023-04-27T18:42:14.111Z,4.78
2023-04-27T18:44:40.823Z,4.95
2023-04-27T18:47:07.884Z,5.60
2023-04-27T18:49:34.634Z,5.50
2023-04-27T18:52:01.436Z,5.38
2023-04-27T18:54:28.100Z,4.65
2023-04-27T18:56:54.861Z,5.25
2023-04-27T18:59:21.575Z,5.53
2023-04-27T19:01:48.438Z,5.40
2023-04-27T19:04:16.384Z,7.10
2023-04-27T19:06:43.130Z,5.45
2023-04-27T19:09:10.020Z,6.25
2023-04-27T19:11:36.700Z,6.18
2023-04-27T19:14:03.384Z,6.20
2023-04-27T19:16:30.331Z,5.70
2023-04-27T19:18:57.236Z,6.47
2023-04-27T19:21:24.013Z,6.72
2023-04-27T19:23:51.123Z,5.70
2023-04-27T19:26:17.885Z,6.50
2023-04-27T19:28:44.600Z,6.22
2023-04-27T19:31:11.459Z,6.40
2023-04-27T19:33:38.378Z,6.05
2023-04-27T19:36:05.488Z,6.10
2023-04-27T19:38:32.155Z,6.28
2023-04-27T19:40:58.790Z,7.00
2023-04-27T19:43:26.068Z,6.15
2023-04-27T19:45:53.270Z,6.72
2023-04-27T19:48:19.891Z,6.95
2023-04-27T19:50:46.549Z,7.20
2023-04-27T19:53:13.307Z,6.63
2023-04-27T19:55:40.641Z,6.22
2023-04-27T19:58:07.286Z,7.60
2023-04-27T20:00:34.173Z,6.65
2023-04-27T20:03:01.310Z,7.55
2023-04-27T20:05:28.453Z,6.95
2023-04-27T20:07:55.438Z,4.35
2023-04-27T20:10:22.110Z,7.18
2023-04-27T20:12:56.738Z,5.70
2023-04-27T20:15:24.703Z,6.85
2023-04-27T20:17:52.407Z,7.47
2023-04-27T20:20:19.524Z,6.57
2023-04-27T20:22:46.232Z,7.25
2023-04-27T20:25:14.465Z,7.40
2023-04-27T20:27:41.537Z,6.57
2023-04-27T20:30:09.022Z,6.25
2023-04-27T20:32:36.305Z,6.68
2023-04-27T20:35:04.435Z,6.53
2023-04-27T20:37:32.131Z,6.30
2023-04-27T20:39:59.279Z,5.15
2023-04-27T20:42:26.053Z,3.70
2023-04-27T20:44:54.667Z,6.40
2023-04-27T20:47:21.590Z,8.85
2023-04-27T20:49:48.349Z,6.07
2023-04-27T20:52:15.041Z,6.72
2023-04-27T20:54:41.769Z,5.55
2023-04-27T20:57:13.386Z,7.90
2023-04-27T20:59:41.055Z,8.38
2023-04-27T21:02:08.128Z,6.85
2023-04-27T21:04:34.911Z,7.75
2023-04-27T21:07:01.620Z,6.45
2023-04-27T21:09:28.288Z,6.88
2023-04-27T21:11:54.955Z,6.47
2023-04-27T21:14:21.663Z,6.60
2023-04-27T21:16:48.402Z,7.30
2023-04-27T21:19:16.501Z,6.28
2023-04-27T21:21:43.408Z,7.30
2023-04-27T21:24:10.155Z,6.40
2023-04-27T21:26:36.958Z,5.60
2023-04-27T21:29:05.772Z,6.28
2023-04-27T21:31:33.400Z,5.15
2023-04-27T21:34:00.709Z,4.10
2023-04-27T21:36:27.565Z,7.72
2023-04-27T21:38:54.435Z,7.43
2023-04-27T21:41:21.106Z,6.07
2023-04-27T21:43:47.729Z,6.35
2023-04-27T21:46:14.627Z,6.20
2023-04-27T21:48:41.261Z,5.13
2023-04-27T21:51:08.136Z,7.05
2023-04-27T21:53:34.844Z,3.83
2023-04-27T21:56:01.407Z,7.22
2023-04-27T21:58:28.459Z,6.57
2023-04-27T22:00:55.078Z,5.93
2023-04-27T22:03:22.659Z,5.60
2023-04-27T22:05:50.276Z,6.80
2023-04-27T22:08:19.796Z,5.93
2023-04-27T22:10:47.141Z,6.80
2023-04-27T23:21:04.428Z,5.15
2023-04-27T23:23:31.409Z,6.85
2023-04-27T23:25:58.021Z,6.65
2023-04-27T23:32:15.718Z,6.50
2023-04-27T23:34:42.409Z,6.55
2023-04-27T23:37:09.121Z,5.93
2023-04-27T23:39:35.756Z,8.25
2023-04-27T23:42:03.372Z,6.85
2023-04-27T23:48:10.947Z,8.27
